sensor_id;sensor_type;location;lat;lon;timestamp;P1;durP1;ratioP1;P2;durP2;ratioP2
8640;SDS011;4358;42.100;25.222;2024-03-17T00:01:57;17.20;;;10.60;;
8640;SDS011;4358;42.100;25.222;2024-03-17T00:04:24;15.73;;;10.37;;
8640;SDS011;4358;42.100;25.222;2024-03-17T00:06:51;14.67;;;9.93;;
8640;SDS011;4358;42.100;25.222;2024-03-17T00:09:18;13.43;;;10.47;;
8640;SDS011;4358;42.100;25.222;2024-03-17T00:11:43;15.60;;;11.10;;
8640;SDS011;4358;42.100;25.222;2024-03-17T00:14:10;12.07;;;10.00;;
8640;SDS011;4358;42.100;25.222;2024-03-17T00:16:36;13.97;;;10.83;;
8640;SDS011;4358;42.100;25.222;2024-03-17T00:19:04;15.50;;;10.60;;
8640;SDS011;4358;42.100;25.222;2024-03-17T00:21:30;15.33;;;10.53;;
8640;SDS011;4358;42.100;25.222;2024-03-17T00:23:58;15.47;;;11.00;;
8640;SDS011;4358;42.100;25.222;2024-03-17T00:26:25;16.13;;;10.73;;
8640;SDS011;4358;42.100;25.222;2024-03-17T00:28:52;15.97;;;11.43;;
8640;SDS011;4358;42.100;25.222;2024-03-17T00:31:18;15.47;;;10.83;;
8640;SDS011;4358;42.100;25.222;2024-03-17T00:33:45;15.50;;;10.53;;
8640;SDS011;4358;42.100;25.222;2024-03-17T00:36:11;14.20;;;10.43;;
8640;SDS011;4358;42.100;25.222;2024-03-17T00:38:38;20.60;;;11.40;;
8640;SDS011;4358;42.100;25.222;2024-03-17T00:41:06;14.50;;;11.00;;
8640;SDS011;4358;42.100;25.222;2024-03-17T00:43:32;16.30;;;10.90;;
8640;SDS011;4358;42.100;25.222;2024-03-17T00:46:00;15.83;;;11.10;;
8640;SDS011;4358;42.100;25.222;2024-03-17T00:48:25;12.40;;;9.70;;
8640;SDS011;4358;42.100;25.222;2024-03-17T00:50:55;17.20;;;11.17;;
8640;SDS011;4358;42.100;25.222;2024-03-17T00:53:22;13.90;;;10.20;;
8640;SDS011;4358;42.100;25.222;2024-03-17T00:55:52;17.27;;;11.73;;
8640;SDS011;4358;42.100;25.222;2024-03-17T00:58:19;16.23;;;10.97;;
8640;SDS011;4358;42.100;25.222;2024-03-17T01:00:46;14.10;;;10.50;;
8640;SDS011;4358;42.100;25.222;2024-03-17T01:03:13;15.60;;;10.47;;
8640;SDS011;4358;42.100;25.222;2024-03-17T01:05:40;17.20;;;10.70;;
8640;SDS011;4358;42.100;25.222;2024-03-17T01:08:07;15.50;;;11.23;;
8640;SDS011;4358;42.100;25.222;2024-03-17T01:10:36;18.20;;;11.13;;
8640;SDS011;4358;42.100;25.222;2024-03-17T01:13:03;15.33;;;10.87;;
8640;SDS011;4358;42.100;25.222;2024-03-17T01:15:31;15.50;;;11.03;;
8640;SDS011;4358;42.100;25.222;2024-03-17T01:17:57;16.27;;;10.90;;
8640;SDS011;4358;42.100;25.222;2024-03-17T01:20:26;17.30;;;11.80;;
8640;SDS011;4358;42.100;25.222;2024-03-17T01:22:52;15.60;;;10.87;;
8640;SDS011;4358;42.100;25.222;2024-03-17T01:25:18;18.03;;;11.40;;
8640;SDS011;4358;42.100;25.222;2024-03-17T01:27:45;16.07;;;10.73;;
8640;SDS011;4358;42.100;25.222;2024-03-17T01:30:12;14.73;;;10.50;;
8640;SDS011;4358;42.100;25.222;2024-03-17T01:32:39;16.67;;;11.33;;
8640;SDS011;4358;42.100;25.222;2024-03-17T01:35:06;15.40;;;11.03;;
8640;SDS011;4358;42.100;25.222;2024-03-17T01:37:32;16.00;;;11.70;;
8640;SDS011;4358;42.100;25.222;2024-03-17T01:39:59;16.07;;;10.67;;
8640;SDS011;4358;42.100;25.222;2024-03-17T01:42:25;26.03;;;12.63;;
8640;SDS011;4358;42.100;25.222;2024-03-17T01:44:52;21.33;;;11.77;;
8640;SDS011;4358;42.100;25.222;2024-03-17T01:47:17;20.30;;;13.03;;
8640;SDS011;4358;42.100;25.222;2024-03-17T01:49:46;20.00;;;13.43;;
8640;SDS011;4358;42.100;25.222;2024-03-17T01:52:13;17.50;;;12.43;;
8640;SDS011;4358;42.100;25.222;2024-03-17T01:54:40;16.57;;;11.97;;
8640;SDS011;4358;42.100;25.222;2024-03-17T01:57:07;17.67;;;12.17;;
8640;SDS011;4358;42.100;25.222;2024-03-17T01:59:34;16.50;;;11.70;;
8640;SDS011;4358;42.100;25.222;2024-03-17T02:02:01;17.27;;;11.80;;
8640;SDS011;4358;42.100;25.222;2024-03-17T02:04:28;17.47;;;11.30;;
8640;SDS011;4358;42.100;25.222;2024-03-17T02:06:56;15.77;;;11.53;;
8640;SDS011;4358;42.100;25.222;2024-03-17T02:09:22;16.47;;;12.33;;
8640;SDS011;4358;42.100;25.222;2024-03-17T02:11:48;16.30;;;11.73;;
8640;SDS011;4358;42.100;25.222;2024-03-17T02:14:15;15.00;;;11.57;;
8640;SDS011;4358;42.100;25.222;2024-03-17T02:16:42;17.20;;;11.77;;
8640;SDS011;4358;42.100;25.222;2024-03-17T02:19:09;22.77;;;12.53;;
8640;SDS011;4358;42.100;25.222;2024-03-17T02:21:35;17.40;;;11.60;;
8640;SDS011;4358;42.100;25.222;2024-03-17T02:24:04;16.73;;;11.97;;
8640;SDS011;4358;42.100;25.222;2024-03-17T02:26:30;18.43;;;12.47;;
8640;SDS011;4358;42.100;25.222;2024-03-17T02:28:56;16.17;;;12.10;;
8640;SDS011;4358;42.100;25.222;2024-03-17T02:31:22;17.83;;;12.97;;
8640;SDS011;4358;42.100;25.222;2024-03-17T02:33:49;21.87;;;13.70;;
8640;SDS011;4358;42.100;25.222;2024-03-17T02:36:15;17.80;;;12.93;;
8640;SDS011;4358;42.100;25.222;2024-03-17T02:38:42;17.30;;;12.93;;
8640;SDS011;4358;42.100;25.222;2024-03-17T02:41:28;18.27;;;13.23;;
8640;SDS011;4358;42.100;25.222;2024-03-17T02:43:55;19.27;;;13.67;;
8640;SDS011;4358;42.100;25.222;2024-03-17T02:46:21;18.90;;;14.20;;
8640;SDS011;4358;42.100;25.222;2024-03-17T02:48:49;18.37;;;13.63;;
8640;SDS011;4358;42.100;25.222;2024-03-17T02:51:18;20.13;;;15.63;;
8640;SDS011;4358;42.100;25.222;2024-03-17T02:53:47;22.17;;;17.13;;
8640;SDS011;4358;42.100;25.222;2024-03-17T02:56:15;26.77;;;22.53;;
8640;SDS011;4358;42.100;25.222;2024-03-17T02:58:44;17.13;;;13.63;;
8640;SDS011;4358;42.100;25.222;2024-03-17T03:01:12;16.47;;;12.17;;
8640;SDS011;4358;42.100;25.222;2024-03-17T03:03:40;16.67;;;12.23;;
8640;SDS011;4358;42.100;25.222;2024-03-17T03:06:07;19.73;;;15.27;;
8640;SDS011;4358;42.100;25.222;2024-03-17T03:08:37;17.17;;;12.93;;
8640;SDS011;4358;42.100;25.222;2024-03-17T03:11:06;21.70;;;12.93;;
8640;SDS011;4358;42.100;25.222;2024-03-17T03:13:36;19.10;;;13.17;;
8640;SDS011;4358;42.100;25.222;2024-03-17T03:16:05;25.93;;;15.03;;
8640;SDS011;4358;42.100;25.222;2024-03-17T03:18:33;21.33;;;13.77;;
8640;SDS011;4358;42.100;25.222;2024-03-17T03:21:00;20.03;;;13.37;;
8640;SDS011;4358;42.100;25.222;2024-03-17T03:23:26;23.10;;;13.57;;
8640;SDS011;4358;42.100;25.222;2024-03-17T03:25:57;19.63;;;14.10;;
8640;SDS011;4358;42.100;25.222;2024-03-17T03:28:24;20.10;;;14.70;;
8640;SDS011;4358;42.100;25.222;2024-03-17T03:30:52;17.13;;;12.17;;
8640;SDS011;4358;42.100;25.222;2024-03-17T03:33:23;17.57;;;13.30;;
8640;SDS011;4358;42.100;25.222;2024-03-17T03:35:50;19.60;;;13.67;;
8640;SDS011;4358;42.100;25.222;2024-03-17T03:38:17;17.90;;;11.80;;
8640;SDS011;4358;42.100;25.222;2024-03-17T03:40:45;18.87;;;12.27;;
8640;SDS011;4358;42.100;25.222;2024-03-17T03:43:13;24.10;;;14.70;;
8640;SDS011;4358;42.100;25.222;2024-03-17T03:45:40;23.93;;;19.23;;
8640;SDS011;4358;42.100;25.222;2024-03-17T03:48:07;19.97;;;14.70;;
8640;SDS011;4358;42.100;25.222;2024-03-17T03:50:36;20.67;;;14.07;;
8640;SDS011;4358;42.100;25.222;2024-03-17T03:53:04;21.33;;;16.00;;
8640;SDS011;4358;42.100;25.222;2024-03-17T03:55:31;19.90;;;14.60;;
8640;SDS011;4358;42.100;25.222;2024-03-17T03:57:58;25.77;;;16.80;;
8640;SDS011;4358;42.100;25.222;2024-03-17T04:00:25;23.90;;;14.63;;
8640;SDS011;4358;42.100;25.222;2024-03-17T04:02:56;22.63;;;15.23;;
8640;SDS011;4358;42.100;25.222;2024-03-17T04:05:23;22.07;;;15.40;;
8640;SDS011;4358;42.100;25.222;2024-03-17T04:07:51;25.37;;;17.27;;
8640;SDS011;4358;42.100;25.222;2024-03-17T04:10:18;29.77;;;17.83;;
8640;SDS011;4358;42.100;25.222;2024-03-17T04:12:45;32.57;;;20.50;;
8640;SDS011;4358;42.100;25.222;2024-03-17T04:15:13;28.77;;;18.87;;
8640;SDS011;4358;42.100;25.222;2024-03-17T04:17:39;25.77;;;16.87;;
8640;SDS011;4358;42.100;25.222;2024-03-17T04:20:07;22.17;;;16.00;;
8640;SDS011;4358;42.100;25.222;2024-03-17T04:22:36;22.43;;;15.37;;
8640;SDS011;4358;42.100;25.222;2024-03-17T04:25:04;18.73;;;12.97;;
8640;SDS011;4358;42.100;25.222;2024-03-17T04:27:31;21.87;;;14.37;;
8640;SDS011;4358;42.100;25.222;2024-03-17T04:29:59;16.57;;;12.50;;
8640;SDS011;4358;42.100;25.222;2024-03-17T04:32:26;20.30;;;11.77;;
8640;SDS011;4358;42.100;25.222;2024-03-17T04:34:53;15.37;;;11.73;;
8640;SDS011;4358;42.100;25.222;2024-03-17T04:37:20;15.50;;;11.33;;
8640;SDS011;4358;42.100;25.222;2024-03-17T04:39:47;16.00;;;11.17;;
8640;SDS011;4358;42.100;25.222;2024-03-17T04:42:18;17.33;;;11.63;;
8640;SDS011;4358;42.100;25.222;2024-03-17T04:44:45;19.03;;;12.60;;
8640;SDS011;4358;42.100;25.222;2024-03-17T04:47:12;84.90;;;42.70;;
8640;SDS011;4358;42.100;25.222;2024-03-17T04:49:39;27.17;;;19.17;;
8640;SDS011;4358;42.100;25.222;2024-03-17T04:52:08;29.80;;;19.77;;
8640;SDS011;4358;42.100;25.222;2024-03-17T04:54:35;30.03;;;19.33;;
8640;SDS011;4358;42.100;25.222;2024-03-17T04:57:02;27.53;;;17.57;;
8640;SDS011;4358;42.100;25.222;2024-03-17T04:59:33;22.87;;;14.97;;
8640;SDS011;4358;42.100;25.222;2024-03-17T05:02:00;18.83;;;13.83;;
8640;SDS011;4358;42.100;25.222;2024-03-17T05:04:28;19.37;;;12.47;;
8640;SDS011;4358;42.100;25.222;2024-03-17T05:06:55;18.70;;;13.43;;
8640;SDS011;4358;42.100;25.222;2024-03-17T05:09:22;23.20;;;14.73;;
8640;SDS011;4358;42.100;25.222;2024-03-17T05:11:49;18.63;;;12.93;;
8640;SDS011;4358;42.100;25.222;2024-03-17T05:14:17;19.03;;;14.33;;
8640;SDS011;4358;42.100;25.222;2024-03-17T05:16:47;17.33;;;13.33;;
8640;SDS011;4358;42.100;25.222;2024-03-17T05:19:15;18.63;;;13.00;;
8640;SDS011;4358;42.100;25.222;2024-03-17T05:21:44;19.13;;;14.33;;
8640;SDS011;4358;42.100;25.222;2024-03-17T05:24:11;21.90;;;14.23;;
8640;SDS011;4358;42.100;25.222;2024-03-17T05:26:38;24.57;;;15.20;;
8640;SDS011;4358;42.100;25.222;2024-03-17T05:29:06;21.07;;;14.30;;
8640;SDS011;4358;42.100;25.222;2024-03-17T05:31:33;22.73;;;15.87;;
8640;SDS011;4358;42.100;25.222;2024-03-17T05:34:01;27.07;;;17.80;;
8640;SDS011;4358;42.100;25.222;2024-03-17T05:36:28;23.77;;;17.30;;
8640;SDS011;4358;42.100;25.222;2024-03-17T05:38:57;25.63;;;17.53;;
8640;SDS011;4358;42.100;25.222;2024-03-17T05:41:24;30.10;;;19.03;;
8640;SDS011;4358;42.100;25.222;2024-03-17T05:43:51;25.33;;;17.60;;
8640;SDS011;4358;42.100;25.222;2024-03-17T05:46:18;25.00;;;17.90;;
8640;SDS011;4358;42.100;25.222;2024-03-17T05:48:45;23.30;;;16.63;;
8640;SDS011;4358;42.100;25.222;2024-03-17T05:51:13;25.43;;;18.27;;
8640;SDS011;4358;42.100;25.222;2024-03-17T05:53:41;24.93;;;17.70;;
8640;SDS011;4358;42.100;25.222;2024-03-17T05:56:09;24.20;;;17.23;;
8640;SDS011;4358;42.100;25.222;2024-03-17T05:58:37;29.97;;;17.97;;
8640;SDS011;4358;42.100;25.222;2024-03-17T06:01:04;24.00;;;17.30;;
8640;SDS011;4358;42.100;25.222;2024-03-17T06:03:32;24.27;;;17.10;;
8640;SDS011;4358;42.100;25.222;2024-03-17T06:06:01;24.93;;;17.93;;
8640;SDS011;4358;42.100;25.222;2024-03-17T06:08:30;25.93;;;16.87;;
8640;SDS011;4358;42.100;25.222;2024-03-17T06:10:57;24.80;;;17.23;;
8640;SDS011;4358;42.100;25.222;2024-03-17T06:13:25;24.87;;;14.93;;
8640;SDS011;4358;42.100;25.222;2024-03-17T06:15:53;30.17;;;16.00;;
8640;SDS011;4358;42.100;25.222;2024-03-17T06:18:20;22.23;;;14.23;;
8640;SDS011;4358;42.100;25.222;2024-03-17T06:20:48;19.83;;;13.97;;
8640;SDS011;4358;42.100;25.222;2024-03-17T06:23:15;18.40;;;13.80;;
8640;SDS011;4358;42.100;25.222;2024-03-17T06:25:44;21.60;;;14.30;;
8640;SDS011;4358;42.100;25.222;2024-03-17T06:28:11;21.27;;;14.77;;
8640;SDS011;4358;42.100;25.222;2024-03-17T06:30:40;20.97;;;13.97;;
8640;SDS011;4358;42.100;25.222;2024-03-17T06:33:07;20.47;;;13.43;;
8640;SDS011;4358;42.100;25.222;2024-03-17T06:35:36;17.37;;;13.17;;
8640;SDS011;4358;42.100;25.222;2024-03-17T06:38:03;20.87;;;13.70;;
8640;SDS011;4358;42.100;25.222;2024-03-17T06:40:30;19.90;;;13.63;;
8640;SDS011;4358;42.100;25.222;2024-03-17T06:42:58;20.17;;;12.20;;
8640;SDS011;4358;42.100;25.222;2024-03-17T06:45:25;17.33;;;12.67;;
8640;SDS011;4358;42.100;25.222;2024-03-17T06:47:52;17.63;;;12.13;;
8640;SDS011;4358;42.100;25.222;2024-03-17T06:50:20;19.20;;;12.73;;
8640;SDS011;4358;42.100;25.222;2024-03-17T06:52:47;18.23;;;13.00;;
8640;SDS011;4358;42.100;25.222;2024-03-17T06:55:14;18.80;;;12.10;;
8640;SDS011;4358;42.100;25.222;2024-03-17T06:57:41;16.13;;;11.33;;
8640;SDS011;4358;42.100;25.222;2024-03-17T07:00:10;14.93;;;11.20;;
8640;SDS011;4358;42.100;25.222;2024-03-17T07:02:39;17.37;;;11.93;;
8640;SDS011;4358;42.100;25.222;2024-03-17T07:05:11;18.13;;;12.87;;
8640;SDS011;4358;42.100;25.222;2024-03-17T07:07:40;21.00;;;14.63;;
8640;SDS011;4358;42.100;25.222;2024-03-17T07:10:07;18.60;;;14.10;;
8640;SDS011;4358;42.100;25.222;2024-03-17T07:12:36;36.87;;;13.83;;
8640;SDS011;4358;42.100;25.222;2024-03-17T07:15:03;20.27;;;13.20;;
8640;SDS011;4358;42.100;25.222;2024-03-17T07:17:32;20.57;;;14.73;;
8640;SDS011;4358;42.100;25.222;2024-03-17T07:19:59;19.00;;;13.90;;
8640;SDS011;4358;42.100;25.222;2024-03-17T07:22:25;22.73;;;15.47;;
8640;SDS011;4358;42.100;25.222;2024-03-17T07:24:53;23.80;;;15.77;;
8640;SDS011;4358;42.100;25.222;2024-03-17T07:27:22;21.17;;;13.93;;
8640;SDS011;4358;42.100;25.222;2024-03-17T07:29:48;20.70;;;15.27;;
8640;SDS011;4358;42.100;25.222;2024-03-17T07:32:15;20.97;;;14.63;;
8640;SDS011;4358;42.100;25.222;2024-03-17T07:34:43;23.23;;;15.90;;
8640;SDS011;4358;42.100;25.222;2024-03-17T07:37:10;21.10;;;15.23;;
8640;SDS011;4358;42.100;25.222;2024-03-17T07:39:37;24.90;;;15.83;;
8640;SDS011;4358;42.100;25.222;2024-03-17T07:42:04;21.23;;;15.87;;
8640;SDS011;4358;42.100;25.222;2024-03-17T07:44:30;21.53;;;15.73;;
8640;SDS011;4358;42.100;25.222;2024-03-17T07:46:59;23.10;;;14.50;;
8640;SDS011;4358;42.100;25.222;2024-03-17T07:49:26;19.57;;;14.23;;
8640;SDS011;4358;42.100;25.222;2024-03-17T07:51:54;19.60;;;13.83;;
8640;SDS011;4358;42.100;25.222;2024-03-17T07:54:22;17.87;;;12.57;;
8640;SDS011;4358;42.100;25.222;2024-03-17T07:56:49;24.67;;;13.27;;
8640;SDS011;4358;42.100;25.222;2024-03-17T07:59:16;20.17;;;12.97;;
8640;SDS011;4358;42.100;25.222;2024-03-17T08:01:43;21.30;;;13.50;;
8640;SDS011;4358;42.100;25.222;2024-03-17T08:04:10;18.50;;;12.90;;
8640;SDS011;4358;42.100;25.222;2024-03-17T08:06:38;18.57;;;12.90;;
8640;SDS011;4358;42.100;25.222;2024-03-17T08:09:07;17.23;;;12.50;;
8640;SDS011;4358;42.100;25.222;2024-03-17T08:11:34;20.30;;;12.93;;
8640;SDS011;4358;42.100;25.222;2024-03-17T08:14:01;22.97;;;14.83;;
8640;SDS011;4358;42.100;25.222;2024-03-17T08:16:28;21.83;;;14.27;;
8640;SDS011;4358;42.100;25.222;2024-03-17T08:18:55;21.13;;;13.90;;
8640;SDS011;4358;42.100;25.222;2024-03-17T08:21:22;21.20;;;14.40;;
8640;SDS011;4358;42.100;25.222;2024-03-17T08:23:49;20.23;;;14.23;;
8640;SDS011;4358;42.100;25.222;2024-03-17T08:26:18;19.20;;;13.50;;
8640;SDS011;4358;42.100;25.222;2024-03-17T08:28:45;19.30;;;13.30;;
8640;SDS011;4358;42.100;25.222;2024-03-17T08:31:12;21.67;;;14.27;;
8640;SDS011;4358;42.100;25.222;2024-03-17T08:33:40;19.57;;;14.17;;
8640;SDS011;4358;42.100;25.222;2024-03-17T08:36:08;22.23;;;14.40;;
8640;SDS011;4358;42.100;25.222;2024-03-17T08:38:36;18.93;;;13.90;;
8640;SDS011;4358;42.100;25.222;2024-03-17T08:41:04;21.33;;;13.47;;
8640;SDS011;4358;42.100;25.222;2024-03-17T08:43:33;21.50;;;13.47;;
8640;SDS011;4358;42.100;25.222;2024-03-17T08:46:01;20.00;;;14.07;;
8640;SDS011;4358;42.100;25.222;2024-03-17T08:48:31;19.07;;;13.97;;
8640;SDS011;4358;42.100;25.222;2024-03-17T08:50:59;28.80;;;15.03;;
8640;SDS011;4358;42.100;25.222;2024-03-17T08:53:27;21.60;;;15.37;;
8640;SDS011;4358;42.100;25.222;2024-03-17T08:55:54;19.87;;;14.27;;
8640;SDS011;4358;42.100;25.222;2024-03-17T08:58:22;19.70;;;13.63;;
8640;SDS011;4358;42.100;25.222;2024-03-17T09:00:50;17.63;;;12.90;;
8640;SDS011;4358;42.100;25.222;2024-03-17T09:03:17;19.47;;;13.80;;
8640;SDS011;4358;42.100;25.222;2024-03-17T09:05:45;17.30;;;13.03;;
8640;SDS011;4358;42.100;25.222;2024-03-17T09:08:14;27.60;;;16.40;;
8640;SDS011;4358;42.100;25.222;2024-03-17T09:10:42;22.37;;;14.03;;
8640;SDS011;4358;42.100;25.222;2024-03-17T09:13:10;21.37;;;14.43;;
8640;SDS011;4358;42.100;25.222;2024-03-17T09:15:39;22.93;;;15.27;;
8640;SDS011;4358;42.100;25.222;2024-03-17T09:18:08;21.93;;;13.53;;
8640;SDS011;4358;42.100;25.222;2024-03-17T09:20:35;21.63;;;14.10;;
8640;SDS011;4358;42.100;25.222;2024-03-17T09:23:01;17.03;;;13.40;;
8640;SDS011;4358;42.100;25.222;2024-03-17T09:25:28;19.33;;;14.27;;
8640;SDS011;4358;42.100;25.222;2024-03-17T09:27:55;18.60;;;13.70;;
8640;SDS011;4358;42.100;25.222;2024-03-17T09:30:23;19.33;;;13.50;;
8640;SDS011;4358;42.100;25.222;2024-03-17T09:32:50;20.07;;;14.03;;
8640;SDS011;4358;42.100;25.222;2024-03-17T09:35:18;22.20;;;14.73;;
8640;SDS011;4358;42.100;25.222;2024-03-17T09:37:45;20.33;;;14.27;;
8640;SDS011;4358;42.100;25.222;2024-03-17T09:40:13;19.70;;;12.23;;
8640;SDS011;4358;42.100;25.222;2024-03-17T09:42:41;17.77;;;13.93;;
8640;SDS011;4358;42.100;25.222;2024-03-17T09:45:08;18.57;;;13.87;;
8640;SDS011;4358;42.100;25.222;2024-03-17T09:47:36;24.63;;;14.03;;
8640;SDS011;4358;42.100;25.222;2024-03-17T09:50:05;20.10;;;12.97;;
8640;SDS011;4358;42.100;25.222;2024-03-17T09:52:41;40.43;;;13.93;;
8640;SDS011;4358;42.100;25.222;2024-03-17T09:55:09;16.17;;;12.83;;
8640;SDS011;4358;42.100;25.222;2024-03-17T09:57:40;30.73;;;14.50;;
8640;SDS011;4358;42.100;25.222;2024-03-17T10:00:09;16.30;;;13.40;;
8640;SDS011;4358;42.100;25.222;2024-03-17T10:02:41;17.87;;;13.63;;
8640;SDS011;4358;42.100;25.222;2024-03-17T10:05:17;17.13;;;13.03;;
8640;SDS011;4358;42.100;25.222;2024-03-17T10:07:46;17.53;;;13.80;;
8640;SDS011;4358;42.100;25.222;2024-03-17T10:10:13;17.77;;;12.73;;
8640;SDS011;4358;42.100;25.222;2024-03-17T10:12:41;18.63;;;12.47;;
8640;SDS011;4358;42.100;25.222;2024-03-17T10:15:09;16.40;;;12.67;;
8640;SDS011;4358;42.100;25.222;2024-03-17T10:17:37;15.90;;;12.87;;
8640;SDS011;4358;42.100;25.222;2024-03-17T10:20:14;16.53;;;12.77;;
8640;SDS011;4358;42.100;25.222;2024-03-17T10:22:59;16.70;;;12.07;;
8640;SDS011;4358;42.100;25.222;2024-03-17T10:25:27;18.47;;;11.73;;
8640;SDS011;4358;42.100;25.222;2024-03-17T10:27:54;16.13;;;12.20;;
8640;SDS011;4358;42.100;25.222;2024-03-17T10:30:22;17.23;;;12.30;;
8640;SDS011;4358;42.100;25.222;2024-03-17T10:32:52;15.43;;;11.33;;
8640;SDS011;4358;42.100;25.222;2024-03-17T10:35:30;15.37;;;11.90;;
8640;SDS011;4358;42.100;25.222;2024-03-17T10:38:00;16.10;;;11.93;;
8640;SDS011;4358;42.100;25.222;2024-03-17T10:40:28;15.20;;;11.83;;
8640;SDS011;4358;42.100;25.222;2024-03-17T10:42:56;35.73;;;13.40;;
8640;SDS011;4358;42.100;25.222;2024-03-17T10:45:25;16.50;;;11.80;;
8640;SDS011;4358;42.100;25.222;2024-03-17T10:47:52;16.43;;;12.77;;
8640;SDS011;4358;42.100;25.222;2024-03-17T10:50:19;16.90;;;11.37;;
8640;SDS011;4358;42.100;25.222;2024-03-17T10:52:47;13.27;;;11.47;;
8640;SDS011;4358;42.100;25.222;2024-03-17T10:55:23;16.27;;;10.77;;
8640;SDS011;4358;42.100;25.222;2024-03-17T10:57:51;13.60;;;11.10;;
8640;SDS011;4358;42.100;25.222;2024-03-17T11:00:22;14.40;;;10.90;;
8640;SDS011;4358;42.100;25.222;2024-03-17T11:02:49;17.90;;;11.10;;
8640;SDS011;4358;42.100;25.222;2024-03-17T11:05:18;13.30;;;11.07;;
8640;SDS011;4358;42.100;25.222;2024-03-17T11:07:46;15.63;;;10.30;;
8640;SDS011;4358;42.100;25.222;2024-03-17T11:10:15;16.30;;;10.87;;
8640;SDS011;4358;42.100;25.222;2024-03-17T11:12:47;16.57;;;10.90;;
8640;SDS011;4358;42.100;25.222;2024-03-17T11:15:37;11.10;;;9.90;;
8640;SDS011;4358;42.100;25.222;2024-03-17T11:21:01;12.90;;;10.23;;
8640;SDS011;4358;42.100;25.222;2024-03-17T11:23:40;13.07;;;10.13;;
8640;SDS011;4358;42.100;25.222;2024-03-17T11:26:07;12.37;;;10.17;;
8640;SDS011;4358;42.100;25.222;2024-03-17T11:28:46;12.43;;;10.33;;
8640;SDS011;4358;42.100;25.222;2024-03-17T11:37:03;12.00;;;9.63;;
8640;SDS011;4358;42.100;25.222;2024-03-17T11:42:17;10.47;;;8.83;;
8640;SDS011;4358;42.100;25.222;2024-03-17T11:45:02;10.87;;;9.27;;
8640;SDS011;4358;42.100;25.222;2024-03-17T11:47:34;14.17;;;9.67;;
8640;SDS011;4358;42.100;25.222;2024-03-17T11:50:06;10.60;;;9.17;;
8640;SDS011;4358;42.100;25.222;2024-03-17T11:52:35;11.50;;;9.20;;
8640;SDS011;4358;42.100;25.222;2024-03-17T11:55:02;11.27;;;8.10;;
8640;SDS011;4358;42.100;25.222;2024-03-17T11:57:28;9.83;;;7.63;;
8640;SDS011;4358;42.100;25.222;2024-03-17T11:59:56;9.63;;;7.47;;
8640;SDS011;4358;42.100;25.222;2024-03-17T12:02:24;8.27;;;7.30;;
8640;SDS011;4358;42.100;25.222;2024-03-17T12:04:52;11.13;;;7.33;;
8640;SDS011;4358;42.100;25.222;2024-03-17T12:07:19;10.70;;;7.33;;
8640;SDS011;4358;42.100;25.222;2024-03-17T12:09:48;8.83;;;6.23;;
8640;SDS011;4358;42.100;25.222;2024-03-17T12:12:16;9.20;;;7.70;;
8640;SDS011;4358;42.100;25.222;2024-03-17T12:14:44;9.27;;;5.87;;
8640;SDS011;4358;42.100;25.222;2024-03-17T12:17:11;4.80;;;4.00;;
8640;SDS011;4358;42.100;25.222;2024-03-17T12:19:43;5.20;;;4.70;;
8640;SDS011;4358;42.100;25.222;2024-03-17T12:22:14;7.67;;;5.93;;
8640;SDS011;4358;42.100;25.222;2024-03-17T12:24:44;9.10;;;6.63;;
8640;SDS011;4358;42.100;25.222;2024-03-17T12:27:17;8.67;;;6.23;;
8640;SDS011;4358;42.100;25.222;2024-03-17T12:29:44;7.37;;;6.23;;
8640;SDS011;4358;42.100;25.222;2024-03-17T12:32:13;7.20;;;5.90;;
8640;SDS011;4358;42.100;25.222;2024-03-17T12:34:42;7.93;;;6.73;;
8640;SDS011;4358;42.100;25.222;2024-03-17T12:37:11;6.53;;;5.83;;
8640;SDS011;4358;42.100;25.222;2024-03-17T12:39:42;11.80;;;6.50;;
8640;SDS011;4358;42.100;25.222;2024-03-17T12:42:09;11.87;;;7.53;;
8640;SDS011;4358;42.100;25.222;2024-03-17T12:44:38;7.23;;;6.53;;
8640;SDS011;4358;42.100;25.222;2024-03-17T12:47:07;7.77;;;6.80;;
8640;SDS011;4358;42.100;25.222;2024-03-17T12:49:43;7.97;;;6.97;;
8640;SDS011;4358;42.100;25.222;2024-03-17T12:52:19;8.53;;;6.90;;
8640;SDS011;4358;42.100;25.222;2024-03-17T12:54:55;13.20;;;7.00;;
8640;SDS011;4358;42.100;25.222;2024-03-17T12:57:42;9.53;;;7.43;;
8640;SDS011;4358;42.100;25.222;2024-03-17T13:00:27;8.17;;;7.33;;
8640;SDS011;4358;42.100;25.222;2024-03-17T13:03:00;8.10;;;7.03;;
8640;SDS011;4358;42.100;25.222;2024-03-17T13:05:29;11.80;;;6.93;;
8640;SDS011;4358;42.100;25.222;2024-03-17T13:07:56;8.23;;;6.80;;
8640;SDS011;4358;42.100;25.222;2024-03-17T13:10:24;8.37;;;7.33;;
8640;SDS011;4358;42.100;25.222;2024-03-17T13:12:58;10.20;;;6.27;;
8640;SDS011;4358;42.100;25.222;2024-03-17T13:15:26;8.33;;;6.20;;
8640;SDS011;4358;42.100;25.222;2024-03-17T13:17:53;7.90;;;6.70;;
8640;SDS011;4358;42.100;25.222;2024-03-17T13:20:20;8.23;;;6.20;;
8640;SDS011;4358;42.100;25.222;2024-03-17T13:22:48;7.33;;;6.50;;
8640;SDS011;4358;42.100;25.222;2024-03-17T13:25:15;8.80;;;6.37;;
8640;SDS011;4358;42.100;25.222;2024-03-17T13:27:43;7.43;;;6.63;;
8640;SDS011;4358;42.100;25.222;2024-03-17T13:30:10;26.77;;;7.80;;
8640;SDS011;4358;42.100;25.222;2024-03-17T13:32:38;8.27;;;6.70;;
8640;SDS011;4358;42.100;25.222;2024-03-17T13:35:06;9.63;;;7.10;;
8640;SDS011;4358;42.100;25.222;2024-03-17T13:37:39;13.57;;;9.20;;
8640;SDS011;4358;42.100;25.222;2024-03-17T13:40:07;9.57;;;7.93;;
8640;SDS011;4358;42.100;25.222;2024-03-17T13:42:37;10.37;;;8.03;;
8640;SDS011;4358;42.100;25.222;2024-03-17T13:45:04;36.90;;;23.53;;
8640;SDS011;4358;42.100;25.222;2024-03-17T13:47:36;15.70;;;9.07;;
8640;SDS011;4358;42.100;25.222;2024-03-17T13:50:03;8.57;;;6.80;;
8640;SDS011;4358;42.100;25.222;2024-03-17T13:52:36;11.60;;;7.13;;
8640;SDS011;4358;42.100;25.222;2024-03-17T13:55:03;11.67;;;7.97;;
8640;SDS011;4358;42.100;25.222;2024-03-17T13:57:33;10.00;;;7.43;;
8640;SDS011;4358;42.100;25.222;2024-03-17T13:59:59;6.63;;;5.83;;
8640;SDS011;4358;42.100;25.222;2024-03-17T14:02:27;9.07;;;6.07;;
8640;SDS011;4358;42.100;25.222;2024-03-17T14:04:54;6.77;;;5.77;;
8640;SDS011;4358;42.100;25.222;2024-03-17T14:07:21;6.53;;;5.30;;
8640;SDS011;4358;42.100;25.222;2024-03-17T14:09:48;5.80;;;5.10;;
8640;SDS011;4358;42.100;25.222;2024-03-17T14:12:14;10.83;;;5.87;;
8640;SDS011;4358;42.100;25.222;2024-03-17T14:14:42;11.80;;;5.83;;
8640;SDS011;4358;42.100;25.222;2024-03-17T14:17:09;6.33;;;5.33;;
8640;SDS011;4358;42.100;25.222;2024-03-17T14:19:36;7.80;;;5.07;;
8640;SDS011;4358;42.100;25.222;2024-03-17T14:22:03;6.10;;;5.37;;
8640;SDS011;4358;42.100;25.222;2024-03-17T14:24:30;7.47;;;5.37;;
8640;SDS011;4358;42.100;25.222;2024-03-17T14:26:57;6.37;;;5.50;;
8640;SDS011;4358;42.100;25.222;2024-03-17T14:29:23;5.00;;;4.50;;
8640;SDS011;4358;42.100;25.222;2024-03-17T14:31:52;7.30;;;5.40;;
8640;SDS011;4358;42.100;25.222;2024-03-17T14:34:18;6.30;;;5.07;;
8640;SDS011;4358;42.100;25.222;2024-03-17T14:36:45;5.53;;;4.93;;
8640;SDS011;4358;42.100;25.222;2024-03-17T14:39:12;6.37;;;4.80;;
8640;SDS011;4358;42.100;25.222;2024-03-17T14:41:39;6.87;;;5.40;;
8640;SDS011;4358;42.100;25.222;2024-03-17T14:44:05;5.93;;;4.67;;
8640;SDS011;4358;42.100;25.222;2024-03-17T14:46:33;6.07;;;5.10;;
8640;SDS011;4358;42.100;25.222;2024-03-17T14:49:01;7.70;;;5.50;;
8640;SDS011;4358;42.100;25.222;2024-03-17T14:51:29;12.40;;;5.90;;
8640;SDS011;4358;42.100;25.222;2024-03-17T14:53:56;10.60;;;8.73;;
8640;SDS011;4358;42.100;25.222;2024-03-17T14:56:25;6.83;;;5.60;;
8640;SDS011;4358;42.100;25.222;2024-03-17T14:58:52;9.13;;;7.27;;